Time;durP1;ratioP1;P1;durP2;ratioP2;P2;SDS_P1;SDS_P2;PMS_P1;PMS_P2;Temp;Humidity;BMP_temperature;BMP_pressure;BME280_temperature;BME280_humidity;BME280_pressure;Samples;Min_cycle;Max_cycle;Signal;HPM_P1;HPM_P2
2021/12/15 00:01:33;;;;;;;;;;;9.10;66.80;;;;;;5074382;28;19912;-68
2021/12/15 00:03:58;;;;;;;;;;;9.10;66.80;;;;;;5074294;28;19948;-68
2021/12/15 00:06:24;;;;;;;;;;;9.20;66.90;;;;;;5074351;28;19915;-68
2021/12/15 00:08:52;;;;;;;;;;;9.20;66.90;;;;;;5074312;28;19999;-68
2021/12/15 00:11:18;;;;;;;;;;;9.20;66.80;;;;;;5074249;28;19908;-68
2021/12/15 00:13:45;;;;;;;;;;;9.20;66.70;;;;;;5072917;28;19995;-68
2021/12/15 00:16:11;;;;;;;;;;;9.20;66.70;;;;;;5072693;28;19989;-68
2021/12/15 00:18:41;;;;;;;;;;;9.20;66.70;;;;;;5074085;28;19915;-68
2021/12/15 00:21:08;;;;;;;;;;;9.20;66.60;;;;;;5073011;28;20281;-68
2021/12/15 00:23:33;;;;;;;;;;;9.20;66.50;;;;;;5074051;28;19993;-68
2021/12/15 00:25:59;;;;;;;;;;;9.20;66.50;;;;;;5073971;28;19978;-68
2021/12/15 00:28:25;;;;;;;;;;;9.20;66.50;;;;;;5073969;28;19916;-68
2021/12/15 00:30:50;;;;;;;;;;;9.20;66.40;;;;;;5073919;28;19994;-68
2021/12/15 00:33:16;;;;;;;;;;;9.20;66.40;;;;;;5073822;28;19916;-68
2021/12/15 00:35:42;;;;;;;;;;;9.20;66.30;;;;;;5073791;28;19908;-68
2021/12/15 00:38:07;;;;;;;;;;;9.20;66.30;;;;;;5073617;28;19909;-68
2021/12/15 00:40:33;;;;;;;;;;;9.20;66.20;;;;;;5073703;28;19908;-67
2021/12/15 00:42:59;;;;;;;;;;;9.20;66.30;;;;;;5073577;28;20004;-68
2021/12/15 00:45:26;;;;;;;;;;;9.20;66.30;;;;;;5073664;28;19935;-68
2021/12/15 00:47:52;;;;;;;;;;;9.20;67.10;;;;;;5073615;28;19915;-68
2021/12/15 00:50:19;;;;;;;;;;;9.20;66.30;;;;;;5073510;28;19908;-68
2021/12/15 00:52:45;;;;;;;;;;;9.20;66.30;;;;;;5073399;28;19909;-68
2021/12/15 00:55:13;;;;;;;;;;;9.20;66.30;;;;;;5073538;28;19912;-68
2021/12/15 00:57:38;;;;;;;;;;;9.20;66.20;;;;;;5073452;28;20437;-68
2021/12/15 01:00:06;;;;;;;;;;;9.20;66.10;;;;;;5073472;28;19944;-68
2021/12/15 01:02:33;;;;;;;;;;;9.20;66.10;;;;;;5073739;28;19912;-69
2021/12/15 01:04:59;;;;;;;;;;;9.20;66.10;;;;;;5073643;28;19947;-68
2021/12/15 01:07:24;;;;;;;;;;;9.20;66.20;;;;;;5073771;28;19908;-68
2021/12/15 01:09:55;;;;;;;;;;;9.20;66.10;;;;;;5073293;28;19908;-68
2021/12/15 01:20:40;;;;;;;;;;;9.30;66.10;;;;;;5073502;28;19961;-68
2021/12/15 01:23:07;;;;;;;;;;;9.30;65.90;;;;;;5073103;28;19916;-68
2021/12/15 01:25:38;;;;;;;;;;;9.30;65.90;;;;;;5073116;28;19908;-67
2021/12/15 01:28:03;;;;;;;;;;;9.30;65.90;;;;;;5073111;28;19909;-67
2021/12/15 01:30:32;;;;;;;;;;;9.30;65.90;;;;;;5073120;28;20340;-67
2021/12/15 01:32:59;;;;;;;;;;;9.30;65.90;;;;;;5073055;28;20369;-67
2021/12/15 01:35:25;;;;;;;;;;;9.30;65.90;;;;;;5072926;28;19966;-67
2021/12/15 01:37:51;;;;;;;;;;;9.30;65.90;;;;;;5072883;28;19908;-66
2021/12/15 01:40:28;;;;;;;;;;;9.30;65.90;;;;;;5072948;28;20349;-67
2021/12/15 01:42:54;;;;;;;;;;;9.30;65.80;;;;;;5072900;28;19919;-67
2021/12/15 01:48:06;;;;;;;;;;;9.30;65.70;;;;;;5072935;28;19915;-67
2021/12/15 01:50:31;;;;;;;;;;;9.30;65.70;;;;;;5072764;28;19908;-67
2021/12/15 01:52:57;;;;;;;;;;;9.30;65.70;;;;;;5071541;28;19944;-67
2021/12/15 01:55:23;;;;;;;;;;;9.30;65.70;;;;;;5072786;28;19916;-67
2021/12/15 01:57:49;;;;;;;;;;;9.30;65.70;;;;;;5072825;28;19908;-67
2021/12/15 02:00:18;;;;;;;;;;;9.30;65.70;;;;;;5072802;28;20390;-67
2021/12/15 02:02:44;;;;;;;;;;;9.40;65.90;;;;;;5072574;28;19921;-67
2021/12/15 02:05:10;;;;;;;;;;;9.40;65.80;;;;;;5072512;28;19999;-67
2021/12/15 02:07:36;;;;;;;;;;;9.40;65.70;;;;;;5072519;28;19955;-67
2021/12/15 02:10:05;;;;;;;;;;;9.40;65.70;;;;;;5072503;28;20251;-67
2021/12/15 02:12:34;;;;;;;;;;;9.40;65.70;;;;;;5072483;28;20370;-67
2021/12/15 02:15:00;;;;;;;;;;;9.40;65.60;;;;;;5072431;28;19916;-67
2021/12/15 02:17:26;;;;;;;;;;;9.40;65.60;;;;;;5072106;28;20293;-67
2021/12/15 02:19:52;;;;;;;;;;;9.40;65.60;;;;;;5072398;28;19912;-67
2021/12/15 02:22:17;;;;;;;;;;;9.40;65.70;;;;;;5072311;28;19917;-67
2021/12/15 02:24:46;;;;;;;;;;;9.40;65.60;;;;;;5072337;28;19912;-66
2021/12/15 02:27:14;;;;;;;;;;;9.40;65.60;;;;;;5073889;28;19977;-67
2021/12/15 02:29:42;;;;;;;;;;;9.40;65.50;;;;;;5076016;28;19948;-66
2021/12/15 02:34:56;;;;;;;;;;;9.40;65.50;;;;;;5075912;28;19951;-67
2021/12/15 02:37:20;;;;;;;;;;;9.50;65.60;;;;;;5075851;28;19916;-66
2021/12/15 02:39:48;;;;;;;;;;;9.50;65.60;;;;;;5074980;28;19948;-66
2021/12/15 02:42:14;;;;;;;;;;;9.50;65.50;;;;;;5075765;28;20014;-66
2021/12/15 02:44:43;;;;;;;;;;;9.50;65.50;;;;;;5075834;28;19929;-66
2021/12/15 02:47:21;;;;;;;;;;;9.50;65.50;;;;;;5075749;28;19915;-66
2021/12/15 02:49:49;;;;;;;;;;;9.50;65.50;;;;;;5074327;28;20290;-66
2021/12/15 02:52:15;;;;;;;;;;;9.50;65.50;;;;;;5075668;28;19931;-66
2021/12/15 02:54:41;;;;;;;;;;;9.60;65.60;;;;;;5075591;28;19913;-66
2021/12/15 02:57:10;;;;;;;;;;;9.60;65.60;;;;;;5075587;28;20359;-66
2021/12/15 02:59:46;;;;;;;;;;;9.60;65.50;;;;;;5075522;28;19939;-66
2021/12/15 03:07:59;;;;;;;;;;;9.60;65.20;;;;;;5075450;28;19909;-67
2021/12/15 03:15:32;;;;;;;;;;;9.50;65.00;;;;;;5075620;28;19915;-67
2021/12/15 03:17:59;;;;;;;;;;;9.50;65.10;;;;;;5075069;28;19923;-67
2021/12/15 03:20:27;;;;;;;;;;;9.50;65.20;;;;;;5075170;28;19915;-67
2021/12/15 03:22:52;;;;;;;;;;;9.50;65.30;;;;;;5075056;28;19917;-66
2021/12/15 03:25:18;;;;;;;;;;;9.50;65.30;;;;;;5075092;28;19908;-66
2021/12/15 03:33:35;;;;;;;;;;;9.50;65.30;;;;;;5074865;28;19916;-67
2021/12/15 03:36:09;;;;;;;;;;;9.50;65.20;;;;;;5074853;28;20007;-67
2021/12/15 03:38:36;;;;;;;;;;;9.50;65.10;;;;;;5074415;28;19934;-67
2021/12/15 03:41:02;;;;;;;;;;;9.40;65.00;;;;;;5074826;28;19909;-66
2021/12/15 03:43:29;;;;;;;;;;;9.40;65.00;;;;;;5074603;28;19912;-67
2021/12/15 03:45:56;;;;;;;;;;;9.40;65.10;;;;;;5074694;28;19958;-66
2021/12/15 03:48:23;;;;;;;;;;;9.40;65.10;;;;;;5074590;28;19998;-67
2021/12/15 03:50:49;;;;;;;;;;;9.40;65.00;;;;;;5074526;28;19909;-67
2021/12/15 03:53:15;;;;;;;;;;;9.40;65.00;;;;;;5074546;28;19908;-66
2021/12/15 03:55:41;;;;;;;;;;;9.40;65.00;;;;;;5073177;28;20290;-66
2021/12/15 03:58:10;;;;;;;;;;;9.40;65.00;;;;;;5074545;28;19909;-67
2021/12/15 04:00:37;;;;;;;;;;;9.40;65.00;;;;;;5074310;28;19914;-67
2021/12/15 04:03:03;;;;;;;;;;;9.40;65.00;;;;;;5074227;28;19919;-67
2021/12/15 04:05:29;;;;;;;;;;;9.40;64.90;;;;;;5074265;28;19908;-67
2021/12/15 04:07:55;;;;;;;;;;;9.40;65.00;;;;;;5074056;28;19908;-67
2021/12/15 04:10:22;;;;;;;;;;;9.40;64.80;;;;;;5074158;28;19908;-67
2021/12/15 04:12:48;;;;;;;;;;;9.40;64.90;;;;;;5072744;28;20370;-67
2021/12/15 04:15:28;;;;;;;;;;;9.30;64.80;;;;;;5074008;28;19935;-67
2021/12/15 04:17:58;;;;;;;;;;;9.40;65.00;;;;;;5073875;28;19917;-67
2021/12/15 04:20:26;;;;;;;;;;;9.40;65.00;;;;;;5073978;28;19909;-67
2021/12/15 04:22:51;;;;;;;;;;;9.30;65.00;;;;;;5073825;28;19924;-67
2021/12/15 04:25:26;;;;;;;;;;;9.40;65.90;;;;;;5073834;28;20316;-67
2021/12/15 04:28:02;;;;;;;;;;;9.40;65.10;;;;;;5073861;28;19909;-67
2021/12/15 04:30:28;;;;;;;;;;;9.40;65.10;;;;;;5073697;28;19936;-67
2021/12/15 04:32:57;;;;;;;;;;;9.40;65.10;;;;;;5073519;28;19908;-68
2021/12/15 04:35:23;;;;;;;;;;;9.40;65.10;;;;;;5073658;28;19916;-67
2021/12/15 04:37:51;;;;;;;;;;;9.50;65.90;;;;;;5073823;28;19962;-67
2021/12/15 04:40:18;;;;;;;;;;;9.50;65.10;;;;;;5073621;28;19909;-67
2021/12/15 04:42:44;;;;;;;;;;;9.50;65.00;;;;;;5073430;28;19963;-67
2021/12/15 04:45:11;;;;;;;;;;;9.50;65.10;;;;;;5073432;28;20282;-67
2021/12/15 04:47:37;;;;;;;;;;;9.50;65.00;;;;;;5073431;28;19908;-67
2021/12/15 04:50:04;;;;;;;;;;;9.50;64.90;;;;;;5072657;28;19913;-67
2021/12/15 04:52:30;;;;;;;;;;;9.50;64.80;;;;;;5073204;28;19915;-67
2021/12/15 04:54:57;;;;;;;;;;;9.50;64.70;;;;;;5073328;28;19909;-67
2021/12/15 04:57:22;;;;;;;;;;;9.50;64.70;;;;;;5073305;28;19958;-67
2021/12/15 04:59:48;;;;;;;;;;;9.50;64.70;;;;;;5073256;28;20320;-67
2021/12/15 05:02:15;;;;;;;;;;;9.40;64.50;;;;;;5073140;28;19916;-67
2021/12/15 05:04:42;;;;;;;;;;;9.40;64.60;;;;;;5073070;28;19909;-67
2021/12/15 05:07:08;;;;;;;;;;;9.40;64.60;;;;;;5071806;28;19909;-67
2021/12/15 05:09:33;;;;;;;;;;;9.30;64.50;;;;;;5072988;28;19916;-67
2021/12/15 05:11:59;;;;;;;;;;;9.30;64.60;;;;;;5072979;28;20366;-67
2021/12/15 05:14:25;;;;;;;;;;;9.30;64.60;;;;;;5073003;28;19965;-66
2021/12/15 05:16:51;;;;;;;;;;;9.30;64.60;;;;;;5072812;28;19970;-67
2021/12/15 05:19:18;;;;;;;;;;;9.30;64.70;;;;;;5072790;28;19908;-67
2021/12/15 05:21:44;;;;;;;;;;;9.30;64.60;;;;;;5072848;28;19955;-67
2021/12/15 05:24:23;;;;;;;;;;;9.30;64.70;;;;;;5072934;28;19954;-67
2021/12/15 05:26:49;;;;;;;;;;;9.20;64.70;;;;;;5072857;28;19908;-67
2021/12/15 05:29:15;;;;;;;;;;;9.20;64.70;;;;;;5072729;28;19909;-67
2021/12/15 05:31:40;;;;;;;;;;;9.20;64.80;;;;;;5072655;28;19957;-67
2021/12/15 05:34:06;;;;;;;;;;;9.20;64.80;;;;;;5071497;28;19908;-67
2021/12/15 05:36:31;;;;;;;;;;;9.20;64.80;;;;;;5071484;28;19909;-67
2021/12/15 05:38:57;;;;;;;;;;;9.20;64.90;;;;;;5072693;28;20321;-67
2021/12/15 05:41:23;;;;;;;;;;;9.20;64.80;;;;;;5071480;28;19999;-67
2021/12/15 05:43:49;;;;;;;;;;;9.20;64.90;;;;;;5072513;28;20389;-66
2021/12/15 05:46:14;;;;;;;;;;;9.20;64.90;;;;;;5072804;28;19916;-66
2021/12/15 05:48:40;;;;;;;;;;;9.20;64.90;;;;;;5072705;28;19909;-67
2021/12/15 05:51:06;;;;;;;;;;;9.20;64.80;;;;;;5072889;28;19916;-67
2021/12/15 05:53:32;;;;;;;;;;;9.30;64.80;;;;;;5072674;28;20393;-67
2021/12/15 05:55:57;;;;;;;;;;;9.20;64.80;;;;;;5072646;28;19948;-66
2021/12/15 05:58:23;;;;;;;;;;;9.30;64.80;;;;;;5072618;28;19908;-67
2021/12/15 06:00:49;;;;;;;;;;;9.20;64.80;;;;;;5073599;28;19995;-67
2021/12/15 06:03:15;;;;;;;;;;;9.20;64.80;;;;;;5076239;28;19912;-66
2021/12/15 06:05:40;;;;;;;;;;;9.30;64.90;;;;;;5076477;28;19943;-67
2021/12/15 06:08:06;;;;;;;;;;;9.30;64.90;;;;;;5076624;28;19909;-67
2021/12/15 06:10:33;;;;;;;;;;;9.30;64.90;;;;;;5076462;28;20011;-66
2021/12/15 06:12:59;;;;;;;;;;;9.30;64.90;;;;;;5076357;28;19915;-67
2021/12/15 06:15:26;;;;;;;;;;;9.30;65.00;;;;;;5076362;28;20435;-67
2021/12/15 06:17:53;;;;;;;;;;;9.40;65.00;;;;;;5076173;28;19947;-67
2021/12/15 06:20:19;;;;;;;;;;;9.40;64.90;;;;;;5076180;28;20433;-67
2021/12/15 06:22:46;;;;;;;;;;;9.40;64.80;;;;;;5074668;28;20019;-67
2021/12/15 06:25:12;;;;;;;;;;;9.40;64.70;;;;;;5076072;28;19987;-67
2021/12/15 06:27:40;;;;;;;;;;;9.50;64.80;;;;;;5076140;28;19908;-67
2021/12/15 06:30:06;;;;;;;;;;;9.50;64.80;;;;;;5076011;28;19909;-67
2021/12/15 06:32:32;;;;;;;;;;;9.50;64.70;;;;;;5076036;28;20270;-66
2021/12/15 06:34:57;;;;;;;;;;;9.50;64.70;;;;;;5076287;28;19909;-67
2021/12/15 06:37:23;;;;;;;;;;;9.50;64.60;;;;;;5075640;28;19908;-66
2021/12/15 06:39:49;;;;;;;;;;;9.50;64.50;;;;;;5075724;28;19916;-67
2021/12/15 06:42:15;;;;;;;;;;;9.50;64.40;;;;;;5075685;28;19916;-67
2021/12/15 06:44:41;;;;;;;;;;;9.50;64.50;;;;;;5075748;28;19908;-67
2021/12/15 07:00:27;;;;;;;;;;;9.40;64.40;;;;;;5075873;28;19913;-67
2021/12/15 07:02:53;;;;;;;;;;;9.40;64.40;;;;;;5075529;28;19919;-66
2021/12/15 07:05:19;;;;;;;;;;;9.40;64.50;;;;;;5075839;28;19915;-67
2021/12/15 07:07:46;;;;;;;;;;;9.40;64.50;;;;;;5072281;28;19920;-68
2021/12/15 07:10:13;;;;;;;;;;;9.40;64.50;;;;;;5075512;28;19962;-65
2021/12/15 07:12:38;;;;;;;;;;;9.50;64.60;;;;;;5054718;28;20370;-65
2021/12/15 07:15:05;;;;;;;;;;;9.40;64.50;;;;;;5055156;28;20010;-65
2021/12/15 07:17:31;;;;;;;;;;;9.40;64.40;;;;;;5055002;28;19959;-65
2021/12/15 07:20:06;;;;;;;;;;;9.40;64.40;;;;;;5055230;28;19940;-65
2021/12/15 07:22:43;;;;;;;;;;;9.40;64.40;;;;;;5056123;28;19917;-65
2021/12/15 07:25:10;;;;;;;;;;;9.50;64.60;;;;;;5055434;28;19913;-65
2021/12/15 07:27:36;;;;;;;;;;;9.50;64.60;;;;;;5056118;28;19916;-65
2021/12/15 07:30:02;;;;;;;;;;;9.50;64.50;;;;;;5055031;28;20342;-66
2021/12/15 07:32:28;;;;;;;;;;;9.50;64.40;;;;;;5058299;28;19909;-65
2021/12/15 07:34:54;;;;;;;;;;;9.50;64.40;;;;;;5069753;28;20328;-65
2021/12/15 07:37:19;;;;;;;;;;;9.60;64.40;;;;;;5073173;28;19954;-65
2021/12/15 07:39:54;;;;;;;;;;;9.60;64.30;;;;;;5054721;28;19944;-65
2021/12/15 07:42:29;;;;;;;;;;;9.60;64.20;;;;;;5054534;28;19919;-66
2021/12/15 07:44:55;;;;;;;;;;;9.60;64.20;;;;;;5054711;28;19943;-65
2021/12/15 07:47:21;;;;;;;;;;;9.60;64.20;;;;;;5054625;28;19913;-66
2021/12/15 07:49:46;;;;;;;;;;;9.60;64.10;;;;;;5071295;28;19912;-65
2021/12/15 07:52:12;;;;;;;;;;;9.60;64.10;;;;;;5067483;28;19943;-66
2021/12/15 07:54:38;;;;;;;;;;;9.70;64.10;;;;;;5063055;28;19913;-65
2021/12/15 07:57:07;;;;;;;;;;;9.70;64.10;;;;;;5058034;28;19920;-65
2021/12/15 07:59:33;;;;;;;;;;;9.70;64.10;;;;;;5062004;28;19909;-65
2021/12/15 08:01:59;;;;;;;;;;;9.70;64.00;;;;;;5062662;28;19985;-66
2021/12/15 08:04:24;;;;;;;;;;;9.70;64.00;;;;;;5057489;28;19948;-65
2021/12/15 08:06:50;;;;;;;;;;;9.70;64.00;;;;;;5057033;28;19909;-65
2021/12/15 08:09:16;;;;;;;;;;;9.70;64.00;;;;;;5074210;28;19915;-65
2021/12/15 08:11:42;;;;;;;;;;;9.70;64.00;;;;;;5074102;28;19908;-65
2021/12/15 08:14:08;;;;;;;;;;;9.70;64.00;;;;;;5074008;28;19930;-66
2021/12/15 08:16:34;;;;;;;;;;;9.70;64.00;;;;;;5070766;28;19912;-66
2021/12/15 08:19:00;;;;;;;;;;;9.70;64.00;;;;;;5053967;28;19963;-66
2021/12/15 08:21:26;;;;;;;;;;;9.70;64.00;;;;;;5054896;28;19916;-65
2021/12/15 08:23:51;;;;;;;;;;;9.70;64.00;;;;;;5053156;28;19909;-66
2021/12/15 08:26:17;;;;;;;;;;;9.70;64.00;;;;;;5064950;28;19951;-66
2021/12/15 08:28:43;;;;;;;;;;;9.70;64.00;;;;;;5056186;28;20385;-66
2021/12/15 08:31:09;;;;;;;;;;;9.70;63.90;;;;;;5057833;28;20380;-66
2021/12/15 08:33:34;;;;;;;;;;;9.80;63.90;;;;;;5066474;28;19946;-66
2021/12/15 08:36:04;;;;;;;;;;;9.80;64.00;;;;;;5062075;28;19908;-66
2021/12/15 08:38:32;;;;;;;;;;;9.80;64.00;;;;;;5073641;28;19955;-66
2021/12/15 08:40:59;;;;;;;;;;;9.80;64.00;;;;;;5073567;28;19915;-66
2021/12/15 08:43:25;;;;;;;;;;;9.90;64.00;;;;;;5059817;28;20306;-66
2021/12/15 08:45:59;;;;;;;;;;;9.90;64.00;;;;;;5073509;28;19909;-66
2021/12/15 08:48:25;;;;;;;;;;;9.90;64.00;;;;;;5063892;28;19959;-66
2021/12/15 08:50:51;;;;;;;;;;;10.00;64.00;;;;;;5053389;28;19909;-66
2021/12/15 08:53:17;;;;;;;;;;;10.00;63.90;;;;;;5066815;28;19912;-66
2021/12/15 08:55:43;;;;;;;;;;;10.00;63.80;;;;;;5073125;28;19919;-66
2021/12/15 08:58:11;;;;;;;;;;;10.00;63.70;;;;;;5073282;28;19999;-66
2021/12/15 09:00:38;;;;;;;;;;;10.10;63.70;;;;;;5068815;28;19939;-66
2021/12/15 09:03:04;;;;;;;;;;;10.10;63.70;;;;;;5055633;28;19936;-66
2021/12/15 09:05:29;;;;;;;;;;;10.10;63.60;;;;;;5061291;28;20316;-66
2021/12/15 09:07:56;;;;;;;;;;;10.10;63.50;;;;;;5051874;28;19915;-68
2021/12/15 09:10:23;;;;;;;;;;;10.10;63.40;;;;;;5053211;28;19910;-66
2021/12/15 09:12:48;;;;;;;;;;;10.20;63.40;;;;;;5055305;28;19924;-67
2021/12/15 09:15:14;;;;;;;;;;;10.20;63.40;;;;;;5060925;28;19913;-66
2021/12/15 09:17:40;;;;;;;;;;;10.20;63.30;;;;;;5067108;28;19920;-66
2021/12/15 09:20:11;;;;;;;;;;;10.20;63.20;;;;;;5067629;28;19985;-67
2021/12/15 09:22:38;;;;;;;;;;;10.20;63.20;;;;;;5052452;28;19990;-66
2021/12/15 09:25:05;;;;;;;;;;;10.20;63.00;;;;;;5052117;28;19909;-66
2021/12/15 09:27:30;;;;;;;;;;;10.30;63.10;;;;;;5054774;28;19916;-67
2021/12/15 09:29:56;;;;;;;;;;;10.30;63.10;;;;;;5071848;28;20313;-66
2021/12/15 09:32:22;;;;;;;;;;;10.30;63.00;;;;;;5072066;28;19999;-67
2021/12/15 09:34:47;;;;;;;;;;;10.30;62.90;;;;;;5055839;28;19916;-66
2021/12/15 09:37:13;;;;;;;;;;;10.30;63.60;;;;;;5051572;28;19979;-66
2021/12/15 09:39:38;;;;;;;;;;;10.40;62.90;;;;;;5052148;28;20311;-67
2021/12/15 09:42:04;;;;;;;;;;;10.40;62.80;;;;;;5053046;28;19917;-67
2021/12/15 09:44:30;;;;;;;;;;;10.40;62.80;;;;;;5065012;28;19923;-68
2021/12/15 10:06:04;;;;;;;;;;;10.60;62.50;;;;;;5071499;28;19917;-67
2021/12/15 10:19:40;;;;;;;;;;;10.80;62.20;;;;;;5052209;28;20278;-67
2021/12/15 10:22:15;;;;;;;;;;;10.80;62.20;;;;;;5051178;28;19921;-67
2021/12/15 10:25:07;;;;;;;;;;;10.90;62.00;;;;;;5055332;28;19913;-68
2021/12/15 10:27:37;;;;;;;;;;;10.90;61.90;;;;;;5068282;28;19917;-68
2021/12/15 10:30:15;;;;;;;;;;;10.90;61.80;;;;;;5065208;28;19943;-68
2021/12/15 10:32:44;;;;;;;;;;;11.00;61.60;;;;;;5050195;28;20397;-68
2021/12/15 10:35:12;;;;;;;;;;;11.00;61.40;;;;;;5065941;28;20021;-68
2021/12/15 10:37:38;;;;;;;;;;;11.00;61.20;;;;;;5069455;28;19908;-68
2021/12/15 10:40:20;;;;;;;;;;;11.00;61.20;;;;;;5055328;28;19912;-68
2021/12/15 10:42:46;;;;;;;;;;;11.10;61.20;;;;;;5069920;28;19973;-68
2021/12/15 10:45:13;;;;;;;;;;;11.10;61.20;;;;;;5069781;28;20242;-68
2021/12/15 10:47:42;;;;;;;;;;;11.10;61.20;;;;;;5060121;28;19913;-68
2021/12/15 10:50:13;;;;;;;;;;;11.20;61.20;;;;;;5036799;28;20373;-68
2021/12/15 10:52:56;;;;;;;;;;;11.20;61.10;;;;;;5053518;28;20043;-68
2021/12/15 10:55:27;;;;;;;;;;;11.30;61.20;;;;;;5053545;28;19915;-68
2021/12/15 10:57:53;;;;;;;;;;;11.40;61.30;;;;;;5053438;28;19913;-68
2021/12/15 11:00:19;;;;;;;;;;;11.40;61.20;;;;;;5053366;28;19913;-68
2021/12/15 11:02:46;;;;;;;;;;;11.50;61.20;;;;;;5053222;28;19912;-68
2021/12/15 11:05:14;;;;;;;;;;;11.60;61.10;;;;;;5055110;28;19908;-68
2021/12/15 11:07:40;;;;;;;;;;;11.60;60.90;;;;;;5054000;28;19954;-68
2021/12/15 11:10:08;;;;;;;;;;;11.80;61.00;;;;;;5055468;28;20321;-68
2021/12/15 11:12:42;;;;;;;;;;;11.90;61.00;;;;;;5055357;28;19958;-68
2021/12/15 11:15:10;;;;;;;;;;;11.90;60.90;;;;;;5055190;28;19913;-68
2021/12/15 11:17:40;;;;;;;;;;;12.00;60.40;;;;;;5055047;28;19923;-68
2021/12/15 11:20:08;;;;;;;;;;;12.00;60.30;;;;;;5053968;28;20253;-68
2021/12/15 11:22:49;;;;;;;;;;;12.10;60.10;;;;;;5054957;28;19916;-68
2021/12/15 11:25:33;;;;;;;;;;;12.10;59.90;;;;;;5054898;28;19909;-68
2021/12/15 11:28:05;;;;;;;;;;;12.20;59.90;;;;;;5054834;28;19909;-68
2021/12/15 11:30:38;;;;;;;;;;;12.20;59.90;;;;;;5054941;28;19916;-68
2021/12/15 11:33:08;;;;;;;;;;;12.30;59.80;;;;;;5054992;28;19955;-68
2021/12/15 11:35:36;;;;;;;;;;;12.30;59.50;;;;;;5054826;28;19995;-68
2021/12/15 11:38:20;;;;;;;;;;;12.30;59.30;;;;;;5054878;28;20277;-68
2021/12/15 11:40:48;;;;;;;;;;;12.40;59.20;;;;;;5054723;28;20319;-68
2021/12/15 11:43:32;;;;;;;;;;;12.30;59.20;;;;;;5054539;28;19996;-68
2021/12/15 11:45:58;;;;;;;;;;;12.40;59.20;;;;;;5054653;28;19915;-68
2021/12/15 11:48:28;;;;;;;;;;;12.40;59.10;;;;;;5054859;28;19905;-68
2021/12/15 11:50:55;;;;;;;;;;;12.40;59.10;;;;;;5055021;28;19913;-67
2021/12/15 11:53:30;;;;;;;;;;;12.40;58.90;;;;;;5054563;28;20371;-68
2021/12/15 11:56:09;;;;;;;;;;;12.50;58.70;;;;;;5054464;28;19909;-68
2021/12/15 11:58:35;;;;;;;;;;;12.50;58.70;;;;;;5054246;28;20381;-68
2021/12/15 12:01:01;;;;;;;;;;;12.50;58.90;;;;;;5054147;28;19909;-68
2021/12/15 12:03:26;;;;;;;;;;;12.60;58.90;;;;;;5054031;28;19913;-68
2021/12/15 12:05:52;;;;;;;;;;;12.60;58.80;;;;;;5054324;28;19909;-68
2021/12/15 12:08:18;;;;;;;;;;;12.70;58.70;;;;;;5054248;28;20315;-68
2021/12/15 12:10:49;;;;;;;;;;;12.70;58.40;;;;;;5053152;28;20375;-68
2021/12/15 12:13:24;;;;;;;;;;;12.70;58.30;;;;;;5054128;28;19956;-68
2021/12/15 12:15:55;;;;;;;;;;;12.60;58.10;;;;;;5054015;28;19909;-68
2021/12/15 12:18:23;;;;;;;;;;;12.60;58.60;;;;;;5054034;28;20362;-68
2021/12/15 12:20:50;;;;;;;;;;;12.60;58.10;;;;;;5053846;28;19909;-68
2021/12/15 12:23:21;;;;;;;;;;;12.50;58.10;;;;;;5052632;28;20420;-68
2021/12/15 12:25:48;;;;;;;;;;;12.50;58.20;;;;;;5053977;28;19909;-68
2021/12/15 12:28:16;;;;;;;;;;;12.50;58.30;;;;;;5053867;28;19915;-68
2021/12/15 12:30:48;;;;;;;;;;;12.50;58.30;;;;;;5053770;28;19909;-68
2021/12/15 12:33:14;;;;;;;;;;;12.50;58.10;;;;;;5053535;28;19916;-68
2021/12/15 12:35:48;;;;;;;;;;;12.50;58.10;;;;;;5053691;28;19908;-68
2021/12/15 12:38:16;;;;;;;;;;;12.50;58.00;;;;;;5053638;28;19994;-68
2021/12/15 12:40:50;;;;;;;;;;;12.40;57.90;;;;;;5053570;28;19909;-68
2021/12/15 12:43:32;;;;;;;;;;;12.40;58.00;;;;;;5053447;28;19919;-68
2021/12/15 12:46:11;;;;;;;;;;;12.40;57.90;;;;;;5053473;28;19916;-68
2021/12/15 12:49:01;;;;;;;;;;;12.40;57.90;;;;;;5053466;28;19909;-68
2021/12/15 13:00:07;;;;;;;;;;;12.20;57.70;;;;;;5053316;28;19920;-68
2021/12/15 13:02:42;;;;;;;;;;;12.10;57.60;;;;;;5053251;28;19912;-68
2021/12/15 13:05:25;;;;;;;;;;;12.00;57.70;;;;;;5053148;28;19909;-67
2021/12/15 13:07:54;;;;;;;;;;;12.00;57.80;;;;;;5051996;28;19940;-68
2021/12/15 13:10:21;;;;;;;;;;;11.80;57.60;;;;;;5052466;28;20341;-68
2021/12/15 13:12:47;;;;;;;;;;;11.80;57.70;;;;;;5053118;28;20363;-68
2021/12/15 13:15:21;;;;;;;;;;;11.80;57.70;;;;;;5053112;28;19909;-67
2021/12/15 13:17:58;;;;;;;;;;;11.70;57.60;;;;;;5052880;28;19916;-68
2021/12/15 13:20:25;;;;;;;;;;;11.60;57.60;;;;;;5053042;28;19916;-68
2021/12/15 13:23:07;;;;;;;;;;;11.50;57.60;;;;;;5052964;28;19921;-68
2021/12/15 13:31:25;;;;;;;;;;;11.20;57.80;;;;;;5050623;28;19919;-67
2021/12/15 13:33:53;;;;;;;;;;;11.10;57.90;;;;;;5050600;28;19955;-68
2021/12/15 13:36:19;;;;;;;;;;;11.00;58.00;;;;;;5050804;28;19916;-67
2021/12/15 13:38:47;;;;;;;;;;;11.00;58.20;;;;;;5050729;28;19909;-67
2021/12/15 13:41:24;;;;;;;;;;;10.90;58.20;;;;;;5050530;28;19924;-67
2021/12/15 13:43:53;;;;;;;;;;;10.80;58.30;;;;;;5050580;28;19931;-67
2021/12/15 13:46:24;;;;;;;;;;;10.80;58.50;;;;;;5050612;28;19909;-68
2021/12/15 13:48:57;;;;;;;;;;;10.80;58.70;;;;;;5050759;28;19909;-68
2021/12/15 13:51:41;;;;;;;;;;;10.70;58.70;;;;;;5050619;28;19913;-68
2021/12/15 13:54:20;;;;;;;;;;;10.70;58.80;;;;;;5050527;28;19908;-68
2021/12/15 13:56:50;;;;;;;;;;;10.70;59.00;;;;;;5050601;28;19975;-68
2021/12/15 13:59:32;;;;;;;;;;;10.70;59.00;;;;;;5050547;28;19909;-67
2021/12/15 14:02:10;;;;;;;;;;;10.70;59.00;;;;;;5050435;28;20016;-67
2021/12/15 14:04:43;;;;;;;;;;;10.70;59.10;;;;;;5050419;28;19909;-67
2021/12/15 14:07:27;;;;;;;;;;;10.70;59.10;;;;;;5051483;28;19909;-67
2021/12/15 14:09:53;;;;;;;;;;;10.70;59.10;;;;;;5052382;28;19959;-67
2021/12/15 14:12:37;;;;;;;;;;;10.60;59.00;;;;;;5052337;28;19912;-67
2021/12/15 14:15:04;;;;;;;;;;;10.60;59.00;;;;;;5052466;28;19909;-67
2021/12/15 14:17:30;;;;;;;;;;;10.60;59.00;;;;;;5052183;28;19999;-67
2021/12/15 14:19:55;;;;;;;;;;;10.50;59.00;;;;;;5052446;28;19951;-68
2021/12/15 14:22:21;;;;;;;;;;;10.50;59.00;;;;;;5053007;28;20025;-67
2021/12/15 14:24:47;;;;;;;;;;;10.40;59.00;;;;;;5056238;28;19913;-67
2021/12/15 14:27:12;;;;;;;;;;;10.40;59.10;;;;;;5056151;28;19905;-68
2021/12/15 14:29:38;;;;;;;;;;;10.30;59.10;;;;;;5056161;28;20286;-67
2021/12/15 14:32:05;;;;;;;;;;;10.30;59.10;;;;;;5055883;28;19988;-67
2021/12/15 14:34:32;;;;;;;;;;;10.20;59.10;;;;;;5055654;28;20358;-68
2021/12/15 14:37:01;;;;;;;;;;;10.20;59.20;;;;;;5054717;28;20043;-68
2021/12/15 14:39:31;;;;;;;;;;;10.10;59.20;;;;;;5055806;28;20259;-68
2021/12/15 14:42:02;;;;;;;;;;;10.10;59.20;;;;;;5055717;28;19913;-68
2021/12/15 14:44:32;;;;;;;;;;;10.00;59.10;;;;;;5055872;28;20430;-67
2021/12/15 14:47:03;;;;;;;;;;;10.00;59.20;;;;;;5055714;28;19916;-67
2021/12/15 14:49:33;;;;;;;;;;;9.90;59.20;;;;;;5055708;28;19913;-68
2021/12/15 14:52:07;;;;;;;;;;;9.80;59.30;;;;;;5055714;28;19908;-68
2021/12/15 14:54:33;;;;;;;;;;;9.70;59.40;;;;;;5055759;28;19912;-67
2021/12/15 14:57:00;;;;;;;;;;;9.70;59.50;;;;;;5055554;28;19997;-68
2021/12/15 14:59:31;;;;;;;;;;;9.60;59.50;;;;;;5055513;28;20019;-68
2021/12/15 15:02:17;;;;;;;;;;;9.50;59.60;;;;;;5055492;28;19913;-68
2021/12/15 15:05:03;;;;;;;;;;;9.40;59.70;;;;;;5055190;28;19916;-68
2021/12/15 15:07:32;;;;;;;;;;;9.30;59.90;;;;;;5055081;28;19912;-68
2021/12/15 15:09:59;;;;;;;;;;;9.30;60.00;;;;;;5055280;28;19916;-67
2021/12/15 15:12:24;;;;;;;;;;;9.20;60.80;;;;;;5055262;28;20362;-68
2021/12/15 15:14:54;;;;;;;;;;;9.20;60.20;;;;;;5055419;28;19905;-68
2021/12/15 15:17:49;;;;;;;;;;;9.10;60.20;;;;;;5054960;28;20291;-68
2021/12/15 15:20:27;;;;;;;;;;;9.00;60.30;;;;;;5054574;28;20090;-67
2021/12/15 15:22:54;;;;;;;;;;;9.00;60.50;;;;;;5055065;28;19923;-68
2021/12/15 15:25:21;;;;;;;;;;;8.90;60.40;;;;;;5054939;28;19915;-68
2021/12/15 15:27:52;;;;;;;;;;;8.90;60.40;;;;;;5054764;28;19905;-67
2021/12/15 15:30:20;;;;;;;;;;;8.80;60.30;;;;;;5054950;28;19913;-67
2021/12/15 15:32:48;;;;;;;;;;;8.70;60.30;;;;;;5054849;28;20243;-68
2021/12/15 15:35:21;;;;;;;;;;;8.70;60.40;;;;;;5054344;28;19909;-68
2021/12/15 15:37:48;;;;;;;;;;;8.60;60.40;;;;;;5054783;28;20339;-67
2021/12/15 15:40:21;;;;;;;;;;;8.60;60.40;;;;;;5054698;28;19951;-67
2021/12/15 15:42:48;;;;;;;;;;;8.50;60.40;;;;;;5054711;28;19913;-68
2021/12/15 15:45:24;;;;;;;;;;;8.40;60.40;;;;;;5054723;28;19908;-68
2021/12/15 15:47:50;;;;;;;;;;;8.40;60.50;;;;;;5054575;28;19913;-68
2021/12/15 15:50:17;;;;;;;;;;;8.30;60.60;;;;;;5064056;28;19909;-67
2021/12/15 15:52:52;;;;;;;;;;;8.30;60.90;;;;;;5057579;28;19913;-67
2021/12/15 15:55:19;;;;;;;;;;;8.30;60.90;;;;;;5054560;28;19962;-67
2021/12/15 15:57:48;;;;;;;;;;;8.20;61.00;;;;;;5054423;28;20282;-67
2021/12/15 16:00:14;;;;;;;;;;;8.20;61.20;;;;;;5064389;28;19913;-67
2021/12/15 16:02:41;;;;;;;;;;;8.10;61.30;;;;;;5067161;28;20393;-67